SVBC/BLA METAR and TAF weather

Enter ICAO airport designator
Station Type Date Time Source
SVBC METAR 2018/10/22 20:00 UTC NOAA

SVBC 222000Z /////KT 9000 DZBKN020 25/25 Q1008


Station Type Date Time Source
SVBC Decoded METAR 2018/10/22 20:00 UTC NOAA

Barcelona, Venezuela (SVBC) 10-07N 064-41W 7M
Oct 22, 2018 - 04:00 PM EDT / 2018.10.22 2000 UTC
Visibility: 5 mile(s):0
Temperature: 77 F (25 C)
Dew Point: 77 F (25 C)
Relative Humidity: 100%
Pressure (altimeter): 29.77 in. Hg (1008 hPa)
ob: SVBC 222000Z /////KT 9000 DZBKN020 25/25 Q1008
cycle: 20

Station Type Date Time Source
SVBC TAF 2018/12/11 18:04 UTC NOAA

TAF SVBC 111600Z 1118/1218 36001KT 9999 SCT010 TX34/19Z TN24/08Z
BECMG 1118/1122 36001KT SCT010


Example: see airport list